sensor_id;sensor_type;location;lat;lon;timestamp;P1;durP1;ratioP1;P2;durP2;ratioP2
63016;SDS011;50274;45.640;11.756;2023-06-26T00:01:27;8.63;;;3.87;;
63016;SDS011;50274;45.640;11.756;2023-06-26T00:03:59;8.15;;;3.60;;
63016;SDS011;50274;45.640;11.756;2023-06-26T00:06:25;8.10;;;3.88;;
63016;SDS011;50274;45.640;11.756;2023-06-26T00:08:53;6.88;;;3.58;;
63016;SDS011;50274;45.640;11.756;2023-06-26T00:11:19;7.13;;;3.47;;
63016;SDS011;50274;45.640;11.756;2023-06-26T00:13:46;8.23;;;3.67;;
63016;SDS011;50274;45.640;11.756;2023-06-26T00:16:11;6.28;;;3.60;;
63016;SDS011;50274;45.640;11.756;2023-06-26T00:18:37;9.80;;;3.72;;
63016;SDS011;50274;45.640;11.756;2023-06-26T00:21:03;9.33;;;3.27;;
63016;SDS011;50274;45.640;11.756;2023-06-26T00:23:29;7.95;;;3.95;;
63016;SDS011;50274;45.640;11.756;2023-06-26T00:26:01;6.35;;;3.55;;
63016;SDS011;50274;45.640;11.756;2023-06-26T00:28:30;6.28;;;3.50;;
63016;SDS011;50274;45.640;11.756;2023-06-26T00:30:56;8.33;;;3.80;;
63016;SDS011;50274;45.640;11.756;2023-06-26T00:33:21;7.63;;;3.67;;
63016;SDS011;50274;45.640;11.756;2023-06-26T00:35:47;7.40;;;3.90;;
63016;SDS011;50274;45.640;11.756;2023-06-26T00:38:13;8.37;;;3.50;;
63016;SDS011;50274;45.640;11.756;2023-06-26T00:40:39;5.93;;;3.10;;
63016;SDS011;50274;45.640;11.756;2023-06-26T00:43:05;6.63;;;3.60;;
63016;SDS011;50274;45.640;11.756;2023-06-26T00:45:30;6.80;;;3.60;;
63016;SDS011;50274;45.640;11.756;2023-06-26T00:47:56;7.07;;;3.75;;
63016;SDS011;50274;45.640;11.756;2023-06-26T00:50:22;7.87;;;3.90;;
63016;SDS011;50274;45.640;11.756;2023-06-26T00:52:48;10.98;;;3.40;;
63016;SDS011;50274;45.640;11.756;2023-06-26T00:55:14;7.90;;;3.75;;
63016;SDS011;50274;45.640;11.756;2023-06-26T00:57:40;7.50;;;3.87;;
63016;SDS011;50274;45.640;11.756;2023-06-26T01:00:06;6.70;;;4.15;;
63016;SDS011;50274;45.640;11.756;2023-06-26T01:02:32;10.05;;;4.65;;
63016;SDS011;50274;45.640;11.756;2023-06-26T01:04:59;8.27;;;3.90;;
63016;SDS011;50274;45.640;11.756;2023-06-26T01:07:28;9.52;;;3.88;;
63016;SDS011;50274;45.640;11.756;2023-06-26T01:09:57;8.30;;;3.77;;
63016;SDS011;50274;45.640;11.756;2023-06-26T01:12:24;7.97;;;4.05;;
63016;SDS011;50274;45.640;11.756;2023-06-26T01:14:50;6.28;;;3.20;;
63016;SDS011;50274;45.640;11.756;2023-06-26T01:17:15;7.23;;;3.70;;
63016;SDS011;50274;45.640;11.756;2023-06-26T01:19:42;6.97;;;3.47;;
63016;SDS011;50274;45.640;11.756;2023-06-26T01:25:19;7.70;;;3.67;;
63016;SDS011;50274;45.640;11.756;2023-06-26T01:27:52;7.88;;;3.47;;
63016;SDS011;50274;45.640;11.756;2023-06-26T01:30:19;8.47;;;3.33;;
63016;SDS011;50274;45.640;11.756;2023-06-26T01:32:46;6.80;;;3.08;;
63016;SDS011;50274;45.640;11.756;2023-06-26T01:35:12;7.28;;;3.33;;
63016;SDS011;50274;45.640;11.756;2023-06-26T01:37:40;9.80;;;3.67;;
63016;SDS011;50274;45.640;11.756;2023-06-26T01:40:06;7.73;;;3.40;;
63016;SDS011;50274;45.640;11.756;2023-06-26T01:42:33;7.57;;;3.30;;
63016;SDS011;50274;45.640;11.756;2023-06-26T01:45:05;6.82;;;3.72;;
63016;SDS011;50274;45.640;11.756;2023-06-26T01:47:40;7.70;;;3.58;;
63016;SDS011;50274;45.640;11.756;2023-06-26T01:50:11;6.82;;;3.17;;
63016;SDS011;50274;45.640;11.756;2023-06-26T01:52:42;7.82;;;3.50;;
63016;SDS011;50274;45.640;11.756;2023-06-26T01:57:52;7.28;;;3.63;;
63016;SDS011;50274;45.640;11.756;2023-06-26T02:00:21;7.22;;;3.05;;
63016;SDS011;50274;45.640;11.756;2023-06-26T02:02:49;6.47;;;3.03;;
63016;SDS011;50274;45.640;11.756;2023-06-26T02:05:15;7.13;;;3.63;;
63016;SDS011;50274;45.640;11.756;2023-06-26T02:07:41;8.35;;;3.78;;
63016;SDS011;50274;45.640;11.756;2023-06-26T02:10:07;6.57;;;3.60;;
63016;SDS011;50274;45.640;11.756;2023-06-26T02:12:34;8.05;;;3.50;;
63016;SDS011;50274;45.640;11.756;2023-06-26T02:15:01;6.27;;;3.20;;
63016;SDS011;50274;45.640;11.756;2023-06-26T02:17:27;8.88;;;3.28;;
63016;SDS011;50274;45.640;11.756;2023-06-26T02:19:53;7.63;;;3.45;;
63016;SDS011;50274;45.640;11.756;2023-06-26T02:22:19;7.00;;;3.37;;
63016;SDS011;50274;45.640;11.756;2023-06-26T02:24:45;7.35;;;4.05;;
63016;SDS011;50274;45.640;11.756;2023-06-26T02:27:11;6.63;;;3.55;;
63016;SDS011;50274;45.640;11.756;2023-06-26T02:29:37;7.73;;;3.80;;
63016;SDS011;50274;45.640;11.756;2023-06-26T02:32:04;6.30;;;3.60;;
63016;SDS011;50274;45.640;11.756;2023-06-26T02:34:30;7.25;;;3.55;;
63016;SDS011;50274;45.640;11.756;2023-06-26T02:36:56;7.15;;;3.83;;
63016;SDS011;50274;45.640;11.756;2023-06-26T02:39:23;8.35;;;3.40;;
63016;SDS011;50274;45.640;11.756;2023-06-26T02:41:49;7.00;;;3.27;;
63016;SDS011;50274;45.640;11.756;2023-06-26T02:44:15;5.78;;;3.15;;
63016;SDS011;50274;45.640;11.756;2023-06-26T02:46:41;6.27;;;2.97;;
63016;SDS011;50274;45.640;11.756;2023-06-26T02:49:06;7.00;;;2.93;;
63016;SDS011;50274;45.640;11.756;2023-06-26T02:51:33;8.77;;;3.35;;
63016;SDS011;50274;45.640;11.756;2023-06-26T02:53:59;6.15;;;3.35;;
63016;SDS011;50274;45.640;11.756;2023-06-26T02:56:25;5.93;;;2.87;;
63016;SDS011;50274;45.640;11.756;2023-06-26T02:58:55;6.80;;;3.25;;
63016;SDS011;50274;45.640;11.756;2023-06-26T03:01:21;7.40;;;3.28;;
63016;SDS011;50274;45.640;11.756;2023-06-26T03:03:47;7.18;;;3.10;;
63016;SDS011;50274;45.640;11.756;2023-06-26T03:06:13;7.00;;;3.20;;
63016;SDS011;50274;45.640;11.756;2023-06-26T03:08:39;7.27;;;3.23;;
63016;SDS011;50274;45.640;11.756;2023-06-26T03:11:06;5.95;;;3.38;;
63016;SDS011;50274;45.640;11.756;2023-06-26T03:13:35;6.15;;;3.40;;
63016;SDS011;50274;45.640;11.756;2023-06-26T03:16:01;6.05;;;2.90;;
63016;SDS011;50274;45.640;11.756;2023-06-26T03:18:27;6.65;;;3.10;;
63016;SDS011;50274;45.640;11.756;2023-06-26T03:20:54;6.03;;;3.13;;
63016;SDS011;50274;45.640;11.756;2023-06-26T03:23:20;8.30;;;3.72;;
63016;SDS011;50274;45.640;11.756;2023-06-26T03:25:47;7.35;;;3.10;;
63016;SDS011;50274;45.640;11.756;2023-06-26T03:28:14;6.22;;;3.17;;
63016;SDS011;50274;45.640;11.756;2023-06-26T03:30:40;7.23;;;3.97;;
63016;SDS011;50274;45.640;11.756;2023-06-26T03:33:05;8.90;;;3.10;;
63016;SDS011;50274;45.640;11.756;2023-06-26T03:35:31;5.60;;;3.17;;
63016;SDS011;50274;45.640;11.756;2023-06-26T03:37:57;6.33;;;3.00;;
63016;SDS011;50274;45.640;11.756;2023-06-26T03:40:24;6.88;;;3.50;;
63016;SDS011;50274;45.640;11.756;2023-06-26T03:42:50;5.78;;;3.10;;
63016;SDS011;50274;45.640;11.756;2023-06-26T03:45:15;5.50;;;2.80;;
63016;SDS011;50274;45.640;11.756;2023-06-26T03:47:41;8.07;;;3.28;;
63016;SDS011;50274;45.640;11.756;2023-06-26T03:50:07;7.47;;;3.50;;
63016;SDS011;50274;45.640;11.756;2023-06-26T03:52:33;5.70;;;3.20;;
63016;SDS011;50274;45.640;11.756;2023-06-26T03:54:59;8.00;;;3.10;;
63016;SDS011;50274;45.640;11.756;2023-06-26T03:57:25;5.15;;;2.72;;
63016;SDS011;50274;45.640;11.756;2023-06-26T03:59:52;8.93;;;3.42;;
63016;SDS011;50274;45.640;11.756;2023-06-26T04:02:18;6.00;;;3.50;;
63016;SDS011;50274;45.640;11.756;2023-06-26T04:04:44;8.63;;;3.38;;
63016;SDS011;50274;45.640;11.756;2023-06-26T04:07:10;5.72;;;3.05;;
63016;SDS011;50274;45.640;11.756;2023-06-26T04:09:36;5.50;;;2.63;;
63016;SDS011;50274;45.640;11.756;2023-06-26T04:12:02;5.45;;;2.90;;
63016;SDS011;50274;45.640;11.756;2023-06-26T04:14:28;6.43;;;3.38;;
63016;SDS011;50274;45.640;11.756;2023-06-26T04:16:54;7.67;;;3.03;;
63016;SDS011;50274;45.640;11.756;2023-06-26T04:19:20;6.90;;;3.55;;
63016;SDS011;50274;45.640;11.756;2023-06-26T04:21:46;6.05;;;3.35;;
63016;SDS011;50274;45.640;11.756;2023-06-26T04:24:12;7.63;;;3.07;;
63016;SDS011;50274;45.640;11.756;2023-06-26T04:26:38;6.88;;;3.40;;
63016;SDS011;50274;45.640;11.756;2023-06-26T04:29:06;6.97;;;3.40;;
63016;SDS011;50274;45.640;11.756;2023-06-26T04:31:32;6.82;;;3.58;;
63016;SDS011;50274;45.640;11.756;2023-06-26T04:33:58;6.50;;;3.60;;
63016;SDS011;50274;45.640;11.756;2023-06-26T04:36:24;7.50;;;3.70;;
63016;SDS011;50274;45.640;11.756;2023-06-26T04:38:54;7.57;;;4.40;;
63016;SDS011;50274;45.640;11.756;2023-06-26T04:41:20;7.60;;;4.13;;
63016;SDS011;50274;45.640;11.756;2023-06-26T04:43:46;7.68;;;3.55;;
63016;SDS011;50274;45.640;11.756;2023-06-26T04:46:12;7.13;;;3.13;;
63016;SDS011;50274;45.640;11.756;2023-06-26T04:48:38;7.60;;;3.45;;
63016;SDS011;50274;45.640;11.756;2023-06-26T04:51:04;7.05;;;3.33;;
63016;SDS011;50274;45.640;11.756;2023-06-26T04:53:30;7.67;;;3.80;;
63016;SDS011;50274;45.640;11.756;2023-06-26T04:55:56;8.00;;;3.80;;
63016;SDS011;50274;45.640;11.756;2023-06-26T04:58:21;7.60;;;3.40;;
63016;SDS011;50274;45.640;11.756;2023-06-26T05:00:47;6.70;;;3.20;;
63016;SDS011;50274;45.640;11.756;2023-06-26T05:03:14;7.85;;;3.28;;
63016;SDS011;50274;45.640;11.756;2023-06-26T05:05:42;6.95;;;3.35;;
63016;SDS011;50274;45.640;11.756;2023-06-26T05:08:15;7.15;;;3.55;;
63016;SDS011;50274;45.640;11.756;2023-06-26T05:10:41;7.80;;;4.00;;
63016;SDS011;50274;45.640;11.756;2023-06-26T05:13:07;8.73;;;4.00;;
63016;SDS011;50274;45.640;11.756;2023-06-26T05:15:32;7.25;;;4.15;;
63016;SDS011;50274;45.640;11.756;2023-06-26T05:17:58;7.63;;;3.85;;
63016;SDS011;50274;45.640;11.756;2023-06-26T05:20:24;8.43;;;4.10;;
63016;SDS011;50274;45.640;11.756;2023-06-26T05:22:50;7.60;;;4.10;;
63016;SDS011;50274;45.640;11.756;2023-06-26T05:25:17;8.73;;;4.72;;
63016;SDS011;50274;45.640;11.756;2023-06-26T05:27:46;8.80;;;4.13;;
63016;SDS011;50274;45.640;11.756;2023-06-26T05:30:13;7.60;;;4.20;;
63016;SDS011;50274;45.640;11.756;2023-06-26T05:32:39;7.82;;;3.60;;
63016;SDS011;50274;45.640;11.756;2023-06-26T05:35:06;8.95;;;4.38;;
63016;SDS011;50274;45.640;11.756;2023-06-26T05:37:33;8.77;;;3.95;;
63016;SDS011;50274;45.640;11.756;2023-06-26T05:39:59;8.53;;;3.93;;
63016;SDS011;50274;45.640;11.756;2023-06-26T05:42:29;7.78;;;4.15;;
63016;SDS011;50274;45.640;11.756;2023-06-26T05:44:55;8.05;;;4.50;;
63016;SDS011;50274;45.640;11.756;2023-06-26T05:47:22;6.85;;;3.80;;
63016;SDS011;50274;45.640;11.756;2023-06-26T05:49:48;7.70;;;4.20;;
63016;SDS011;50274;45.640;11.756;2023-06-26T05:52:14;10.57;;;4.37;;
63016;SDS011;50274;45.640;11.756;2023-06-26T05:54:41;10.13;;;4.45;;
63016;SDS011;50274;45.640;11.756;2023-06-26T05:57:07;13.93;;;4.57;;
63016;SDS011;50274;45.640;11.756;2023-06-26T05:59:33;8.98;;;4.55;;
63016;SDS011;50274;45.640;11.756;2023-06-26T06:02:02;8.68;;;3.90;;
63016;SDS011;50274;45.640;11.756;2023-06-26T06:04:28;7.17;;;3.83;;
63016;SDS011;50274;45.640;11.756;2023-06-26T06:06:53;9.10;;;4.15;;
63016;SDS011;50274;45.640;11.756;2023-06-26T06:09:19;7.93;;;4.28;;
63016;SDS011;50274;45.640;11.756;2023-06-26T06:11:45;9.43;;;4.17;;
63016;SDS011;50274;45.640;11.756;2023-06-26T06:14:11;7.80;;;4.18;;
63016;SDS011;50274;45.640;11.756;2023-06-26T06:16:36;7.63;;;4.43;;
63016;SDS011;50274;45.640;11.756;2023-06-26T06:19:03;7.47;;;3.87;;
63016;SDS011;50274;45.640;11.756;2023-06-26T06:21:31;9.93;;;4.15;;
63016;SDS011;50274;45.640;11.756;2023-06-26T06:23:57;6.53;;;3.50;;
63016;SDS011;50274;45.640;11.756;2023-06-26T06:26:23;7.57;;;4.60;;
63016;SDS011;50274;45.640;11.756;2023-06-26T06:28:49;10.20;;;5.00;;
63016;SDS011;50274;45.640;11.756;2023-06-26T06:31:15;10.43;;;5.03;;
63016;SDS011;50274;45.640;11.756;2023-06-26T06:33:40;7.93;;;5.03;;
63016;SDS011;50274;45.640;11.756;2023-06-26T06:36:06;8.73;;;5.85;;
63016;SDS011;50274;45.640;11.756;2023-06-26T06:38:32;7.47;;;4.97;;
63016;SDS011;50274;45.640;11.756;2023-06-26T06:40:58;9.32;;;5.50;;
63016;SDS011;50274;45.640;11.756;2023-06-26T06:43:24;7.43;;;4.78;;
63016;SDS011;50274;45.640;11.756;2023-06-26T06:45:50;8.93;;;5.50;;
63016;SDS011;50274;45.640;11.756;2023-06-26T06:48:15;8.25;;;5.57;;
63016;SDS011;50274;45.640;11.756;2023-06-26T06:50:41;9.57;;;5.50;;
63016;SDS011;50274;45.640;11.756;2023-06-26T06:53:07;7.82;;;5.18;;
63016;SDS011;50274;45.640;11.756;2023-06-26T06:55:33;9.93;;;4.95;;
63016;SDS011;50274;45.640;11.756;2023-06-26T06:57:59;9.68;;;5.13;;
63016;SDS011;50274;45.640;11.756;2023-06-26T07:00:25;10.00;;;5.67;;
63016;SDS011;50274;45.640;11.756;2023-06-26T07:02:51;10.80;;;5.18;;
63016;SDS011;50274;45.640;11.756;2023-06-26T07:05:18;9.32;;;5.68;;
63016;SDS011;50274;45.640;11.756;2023-06-26T07:07:44;10.80;;;5.70;;
63016;SDS011;50274;45.640;11.756;2023-06-26T07:10:12;9.83;;;5.30;;
63016;SDS011;50274;45.640;11.756;2023-06-26T07:12:38;9.60;;;5.47;;
63016;SDS011;50274;45.640;11.756;2023-06-26T07:15:05;9.73;;;5.95;;
63016;SDS011;50274;45.640;11.756;2023-06-26T07:17:31;8.68;;;5.20;;
63016;SDS011;50274;45.640;11.756;2023-06-26T07:19:58;9.20;;;5.50;;
63016;SDS011;50274;45.640;11.756;2023-06-26T07:22:25;8.35;;;5.40;;
63016;SDS011;50274;45.640;11.756;2023-06-26T07:24:51;7.97;;;5.35;;
63016;SDS011;50274;45.640;11.756;2023-06-26T07:27:18;8.73;;;5.15;;
63016;SDS011;50274;45.640;11.756;2023-06-26T07:29:45;9.85;;;5.65;;
63016;SDS011;50274;45.640;11.756;2023-06-26T07:32:11;7.73;;;5.10;;
63016;SDS011;50274;45.640;11.756;2023-06-26T07:34:36;9.68;;;5.97;;
63016;SDS011;50274;45.640;11.756;2023-06-26T07:37:02;10.27;;;5.40;;
63016;SDS011;50274;45.640;11.756;2023-06-26T07:39:29;8.37;;;5.50;;
63016;SDS011;50274;45.640;11.756;2023-06-26T07:41:55;8.73;;;5.53;;
63016;SDS011;50274;45.640;11.756;2023-06-26T07:44:23;8.52;;;5.43;;
63016;SDS011;50274;45.640;11.756;2023-06-26T07:46:49;9.07;;;5.70;;
63016;SDS011;50274;45.640;11.756;2023-06-26T07:49:14;10.13;;;5.90;;
63016;SDS011;50274;45.640;11.756;2023-06-26T07:51:40;8.95;;;5.05;;
63016;SDS011;50274;45.640;11.756;2023-06-26T07:54:06;11.97;;;5.63;;
63016;SDS011;50274;45.640;11.756;2023-06-26T07:56:35;9.68;;;5.13;;
63016;SDS011;50274;45.640;11.756;2023-06-26T07:59:17;9.27;;;5.35;;
63016;SDS011;50274;45.640;11.756;2023-06-26T08:01:43;9.95;;;5.40;;
63016;SDS011;50274;45.640;11.756;2023-06-26T08:04:09;8.27;;;5.17;;
63016;SDS011;50274;45.640;11.756;2023-06-26T08:06:36;7.82;;;5.15;;
63016;SDS011;50274;45.640;11.756;2023-06-26T08:09:05;10.45;;;5.22;;
63016;SDS011;50274;45.640;11.756;2023-06-26T08:11:33;7.75;;;5.28;;
63016;SDS011;50274;45.640;11.756;2023-06-26T08:14:01;8.10;;;5.27;;
63016;SDS011;50274;45.640;11.756;2023-06-26T08:16:27;10.02;;;5.25;;
63016;SDS011;50274;45.640;11.756;2023-06-26T08:18:53;9.85;;;5.50;;
63016;SDS011;50274;45.640;11.756;2023-06-26T08:21:18;11.25;;;5.78;;
63016;SDS011;50274;45.640;11.756;2023-06-26T08:23:44;7.87;;;5.40;;
63016;SDS011;50274;45.640;11.756;2023-06-26T08:26:10;8.48;;;5.53;;
63016;SDS011;50274;45.640;11.756;2023-06-26T08:28:36;9.50;;;5.70;;
63016;SDS011;50274;45.640;11.756;2023-06-26T08:31:02;9.77;;;5.70;;
63016;SDS011;50274;45.640;11.756;2023-06-26T08:33:27;12.77;;;5.60;;
63016;SDS011;50274;45.640;11.756;2023-06-26T08:35:53;7.97;;;5.57;;
63016;SDS011;50274;45.640;11.756;2023-06-26T08:38:19;12.50;;;6.35;;
63016;SDS011;50274;45.640;11.756;2023-06-26T08:40:46;10.23;;;5.85;;
63016;SDS011;50274;45.640;11.756;2023-06-26T08:43:12;10.80;;;6.53;;
63016;SDS011;50274;45.640;11.756;2023-06-26T08:45:38;10.80;;;5.30;;
63016;SDS011;50274;45.640;11.756;2023-06-26T08:48:05;10.63;;;5.97;;
63016;SDS011;50274;45.640;11.756;2023-06-26T08:50:33;9.55;;;5.88;;
63016;SDS011;50274;45.640;11.756;2023-06-26T08:53:03;9.13;;;5.90;;
63016;SDS011;50274;45.640;11.756;2023-06-26T08:55:36;9.10;;;5.45;;
63016;SDS011;50274;45.640;11.756;2023-06-26T08:58:06;12.03;;;5.10;;
63016;SDS011;50274;45.640;11.756;2023-06-26T09:00:31;11.05;;;4.97;;
63016;SDS011;50274;45.640;11.756;2023-06-26T09:02:58;9.77;;;5.40;;
63016;SDS011;50274;45.640;11.756;2023-06-26T09:05:25;9.50;;;5.32;;
63016;SDS011;50274;45.640;11.756;2023-06-26T09:07:52;9.88;;;5.57;;
63016;SDS011;50274;45.640;11.756;2023-06-26T09:10:21;10.10;;;5.70;;
63016;SDS011;50274;45.640;11.756;2023-06-26T09:12:47;8.05;;;5.22;;
63016;SDS011;50274;45.640;11.756;2023-06-26T09:15:19;8.82;;;4.97;;
63016;SDS011;50274;45.640;11.756;2023-06-26T09:17:45;10.30;;;5.35;;
63016;SDS011;50274;45.640;11.756;2023-06-26T09:20:13;9.70;;;5.37;;
63016;SDS011;50274;45.640;11.756;2023-06-26T09:22:40;8.95;;;5.15;;
63016;SDS011;50274;45.640;11.756;2023-06-26T09:25:08;11.55;;;5.15;;
63016;SDS011;50274;45.640;11.756;2023-06-26T09:27:35;9.98;;;5.30;;
63016;SDS011;50274;45.640;11.756;2023-06-26T09:30:04;9.23;;;4.90;;
63016;SDS011;50274;45.640;11.756;2023-06-26T09:32:34;9.77;;;5.20;;
63016;SDS011;50274;45.640;11.756;2023-06-26T09:35:02;8.30;;;4.97;;
63016;SDS011;50274;45.640;11.756;2023-06-26T09:37:28;7.65;;;4.97;;
63016;SDS011;50274;45.640;11.756;2023-06-26T09:39:55;9.30;;;5.78;;
63016;SDS011;50274;45.640;11.756;2023-06-26T09:42:21;10.80;;;5.33;;
63016;SDS011;50274;45.640;11.756;2023-06-26T09:44:47;8.48;;;5.00;;
63016;SDS011;50274;45.640;11.756;2023-06-26T09:47:18;10.02;;;5.70;;
63016;SDS011;50274;45.640;11.756;2023-06-26T09:49:44;10.43;;;5.82;;
63016;SDS011;50274;45.640;11.756;2023-06-26T09:52:19;9.43;;;4.70;;
63016;SDS011;50274;45.640;11.756;2023-06-26T09:54:45;8.63;;;4.30;;
63016;SDS011;50274;45.640;11.756;2023-06-26T09:57:12;8.88;;;5.00;;
63016;SDS011;50274;45.640;11.756;2023-06-26T09:59:40;9.50;;;4.93;;
63016;SDS011;50274;45.640;11.756;2023-06-26T10:02:07;8.85;;;4.85;;
63016;SDS011;50274;45.640;11.756;2023-06-26T10:04:34;8.90;;;4.88;;
63016;SDS011;50274;45.640;11.756;2023-06-26T10:07:08;9.67;;;5.10;;
63016;SDS011;50274;45.640;11.756;2023-06-26T10:09:37;11.20;;;4.93;;
63016;SDS011;50274;45.640;11.756;2023-06-26T10:12:14;9.43;;;5.00;;
63016;SDS011;50274;45.640;11.756;2023-06-26T10:14:44;9.48;;;4.88;;
63016;SDS011;50274;45.640;11.756;2023-06-26T10:17:11;8.00;;;4.70;;
63016;SDS011;50274;45.640;11.756;2023-06-26T10:19:43;8.37;;;4.87;;
63016;SDS011;50274;45.640;11.756;2023-06-26T10:22:11;9.48;;;4.95;;
63016;SDS011;50274;45.640;11.756;2023-06-26T10:24:42;7.60;;;4.47;;
63016;SDS011;50274;45.640;11.756;2023-06-26T10:27:17;7.22;;;4.50;;
63016;SDS011;50274;45.640;11.756;2023-06-26T10:29:55;8.77;;;4.70;;
63016;SDS011;50274;45.640;11.756;2023-06-26T10:32:24;7.70;;;4.33;;
63016;SDS011;50274;45.640;11.756;2023-06-26T10:34:51;7.63;;;4.28;;
63016;SDS011;50274;45.640;11.756;2023-06-26T10:37:18;9.60;;;4.60;;
63016;SDS011;50274;45.640;11.756;2023-06-26T10:39:47;9.65;;;4.10;;
63016;SDS011;50274;45.640;11.756;2023-06-26T10:42:14;6.73;;;3.77;;
63016;SDS011;50274;45.640;11.756;2023-06-26T10:44:42;6.45;;;3.60;;
63016;SDS011;50274;45.640;11.756;2023-06-26T10:47:10;9.40;;;4.00;;
63016;SDS011;50274;45.640;11.756;2023-06-26T10:49:37;7.30;;;3.97;;
63016;SDS011;50274;45.640;11.756;2023-06-26T10:52:07;9.48;;;4.60;;
63016;SDS011;50274;45.640;11.756;2023-06-26T10:54:33;7.90;;;4.60;;
63016;SDS011;50274;45.640;11.756;2023-06-26T10:57:01;13.27;;;5.35;;
63016;SDS011;50274;45.640;11.756;2023-06-26T10:59:28;9.05;;;5.00;;
63016;SDS011;50274;45.640;11.756;2023-06-26T11:01:56;9.38;;;4.90;;
63016;SDS011;50274;45.640;11.756;2023-06-26T11:07:22;10.20;;;4.90;;
63016;SDS011;50274;45.640;11.756;2023-06-26T11:09:59;10.82;;;5.75;;
63016;SDS011;50274;45.640;11.756;2023-06-26T11:12:47;11.82;;;5.38;;
63016;SDS011;50274;45.640;11.756;2023-06-26T11:15:14;7.00;;;4.15;;
63016;SDS011;50274;45.640;11.756;2023-06-26T11:17:41;8.20;;;4.90;;
63016;SDS011;50274;45.640;11.756;2023-06-26T11:20:08;8.40;;;5.00;;
63016;SDS011;50274;45.640;11.756;2023-06-26T11:22:40;7.53;;;4.45;;
63016;SDS011;50274;45.640;11.756;2023-06-26T11:25:07;7.88;;;4.88;;
63016;SDS011;50274;45.640;11.756;2023-06-26T11:30:07;7.40;;;4.65;;
63016;SDS011;50274;45.640;11.756;2023-06-26T11:32:35;9.07;;;5.33;;
63016;SDS011;50274;45.640;11.756;2023-06-26T11:35:02;7.90;;;4.97;;
63016;SDS011;50274;45.640;11.756;2023-06-26T11:37:29;10.68;;;4.80;;
63016;SDS011;50274;45.640;11.756;2023-06-26T11:39:56;8.85;;;4.95;;
63016;SDS011;50274;45.640;11.756;2023-06-26T11:42:23;8.60;;;5.00;;
63016;SDS011;50274;45.640;11.756;2023-06-26T11:44:50;8.93;;;5.50;;
63016;SDS011;50274;45.640;11.756;2023-06-26T11:47:18;8.88;;;5.15;;
63016;SDS011;50274;45.640;11.756;2023-06-26T11:49:46;8.50;;;5.40;;
63016;SDS011;50274;45.640;11.756;2023-06-26T11:52:13;11.02;;;5.72;;
63016;SDS011;50274;45.640;11.756;2023-06-26T11:54:40;10.18;;;5.40;;
63016;SDS011;50274;45.640;11.756;2023-06-26T11:57:14;8.90;;;5.13;;
63016;SDS011;50274;45.640;11.756;2023-06-26T11:59:40;7.85;;;5.65;;
63016;SDS011;50274;45.640;11.756;2023-06-26T12:02:06;7.82;;;4.95;;
63016;SDS011;50274;45.640;11.756;2023-06-26T12:04:34;11.88;;;6.10;;
63016;SDS011;50274;45.640;11.756;2023-06-26T12:07:06;11.07;;;5.43;;
63016;SDS011;50274;45.640;11.756;2023-06-26T12:09:38;8.60;;;5.70;;
63016;SDS011;50274;45.640;11.756;2023-06-26T12:12:08;9.02;;;5.60;;
63016;SDS011;50274;45.640;11.756;2023-06-26T12:14:35;8.70;;;5.20;;
63016;SDS011;50274;45.640;11.756;2023-06-26T12:17:11;9.50;;;5.75;;
63016;SDS011;50274;45.640;11.756;2023-06-26T12:19:39;9.80;;;5.07;;
63016;SDS011;50274;45.640;11.756;2023-06-26T12:22:09;8.57;;;5.30;;
63016;SDS011;50274;45.640;11.756;2023-06-26T12:24:37;9.23;;;5.70;;
63016;SDS011;50274;45.640;11.756;2023-06-26T12:27:08;11.25;;;5.18;;
63016;SDS011;50274;45.640;11.756;2023-06-26T12:29:35;9.27;;;5.70;;
63016;SDS011;50274;45.640;11.756;2023-06-26T12:32:07;11.50;;;5.75;;
63016;SDS011;50274;45.640;11.756;2023-06-26T12:34:37;7.50;;;5.00;;
63016;SDS011;50274;45.640;11.756;2023-06-26T12:37:04;8.13;;;5.25;;
63016;SDS011;50274;45.640;11.756;2023-06-26T12:42:41;12.45;;;5.25;;
63016;SDS011;50274;45.640;11.756;2023-06-26T12:45:10;9.87;;;5.23;;
63016;SDS011;50274;45.640;11.756;2023-06-26T12:47:37;8.70;;;5.05;;
63016;SDS011;50274;45.640;11.756;2023-06-26T12:50:06;9.25;;;4.72;;
63016;SDS011;50274;45.640;11.756;2023-06-26T12:52:32;9.38;;;4.50;;
63016;SDS011;50274;45.640;11.756;2023-06-26T12:54:58;12.20;;;5.13;;
63016;SDS011;50274;45.640;11.756;2023-06-26T12:57:24;7.88;;;4.75;;
63016;SDS011;50274;45.640;11.756;2023-06-26T12:59:51;10.50;;;5.25;;
63016;SDS011;50274;45.640;11.756;2023-06-26T13:02:18;7.78;;;4.40;;
63016;SDS011;50274;45.640;11.756;2023-06-26T13:04:44;8.32;;;4.68;;
63016;SDS011;50274;45.640;11.756;2023-06-26T13:07:10;10.73;;;5.10;;
63016;SDS011;50274;45.640;11.756;2023-06-26T13:09:36;7.65;;;4.95;;
63016;SDS011;50274;45.640;11.756;2023-06-26T13:12:03;11.60;;;5.80;;
63016;SDS011;50274;45.640;11.756;2023-06-26T13:14:31;8.50;;;5.25;;
63016;SDS011;50274;45.640;11.756;2023-06-26T13:16:57;9.75;;;5.20;;
63016;SDS011;50274;45.640;11.756;2023-06-26T13:19:23;8.77;;;4.77;;
63016;SDS011;50274;45.640;11.756;2023-06-26T13:21:49;10.63;;;5.20;;
63016;SDS011;50274;45.640;11.756;2023-06-26T13:24:14;9.45;;;5.20;;
63016;SDS011;50274;45.640;11.756;2023-06-26T13:26:41;7.50;;;4.70;;
63016;SDS011;50274;45.640;11.756;2023-06-26T13:29:06;9.57;;;4.90;;
63016;SDS011;50274;45.640;11.756;2023-06-26T13:31:32;8.27;;;5.03;;
63016;SDS011;50274;45.640;11.756;2023-06-26T13:33:58;10.98;;;5.57;;
63016;SDS011;50274;45.640;11.756;2023-06-26T13:36:25;7.30;;;5.18;;
63016;SDS011;50274;45.640;11.756;2023-06-26T13:38:51;8.17;;;5.20;;
63016;SDS011;50274;45.640;11.756;2023-06-26T13:41:21;7.00;;;4.53;;
63016;SDS011;50274;45.640;11.756;2023-06-26T13:43:48;9.50;;;4.93;;
63016;SDS011;50274;45.640;11.756;2023-06-26T13:46:16;8.77;;;5.13;;
63016;SDS011;50274;45.640;11.756;2023-06-26T13:48:43;8.38;;;4.90;;
63016;SDS011;50274;45.640;11.756;2023-06-26T13:51:12;14.50;;;4.63;;
63016;SDS011;50274;45.640;11.756;2023-06-26T13:53:38;10.38;;;4.97;;
63016;SDS011;50274;45.640;11.756;2023-06-26T13:56:03;7.97;;;5.00;;
63016;SDS011;50274;45.640;11.756;2023-06-26T13:58:29;9.02;;;4.43;;
63016;SDS011;50274;45.640;11.756;2023-06-26T14:00:57;9.07;;;4.60;;
63016;SDS011;50274;45.640;11.756;2023-06-26T14:03:24;8.27;;;4.03;;
63016;SDS011;50274;45.640;11.756;2023-06-26T14:05:51;8.52;;;4.90;;
63016;SDS011;50274;45.640;11.756;2023-06-26T14:08:17;8.60;;;4.50;;
63016;SDS011;50274;45.640;11.756;2023-06-26T14:10:43;9.90;;;4.70;;
63016;SDS011;50274;45.640;11.756;2023-06-26T14:13:09;9.70;;;5.15;;
63016;SDS011;50274;45.640;11.756;2023-06-26T14:15:36;10.23;;;4.75;;
63016;SDS011;50274;45.640;11.756;2023-06-26T14:18:07;9.35;;;4.75;;
63016;SDS011;50274;45.640;11.756;2023-06-26T14:20:33;8.53;;;4.83;;
63016;SDS011;50274;45.640;11.756;2023-06-26T14:23:00;7.38;;;4.68;;
63016;SDS011;50274;45.640;11.756;2023-06-26T14:25:27;8.98;;;4.40;;
63016;SDS011;50274;45.640;11.756;2023-06-26T14:27:53;8.90;;;4.70;;
63016;SDS011;50274;45.640;11.756;2023-06-26T14:30:20;7.80;;;4.20;;
63016;SDS011;50274;45.640;11.756;2023-06-26T14:32:46;11.48;;;4.72;;
63016;SDS011;50274;45.640;11.756;2023-06-26T14:35:12;8.15;;;4.30;;
63016;SDS011;50274;45.640;11.756;2023-06-26T14:37:38;7.90;;;4.90;;
63016;SDS011;50274;45.640;11.756;2023-06-26T14:40:05;8.23;;;4.50;;
63016;SDS011;50274;45.640;11.756;2023-06-26T14:42:32;9.45;;;4.63;;
63016;SDS011;50274;45.640;11.756;2023-06-26T14:44:58;9.55;;;4.50;;
63016;SDS011;50274;45.640;11.756;2023-06-26T14:47:24;12.30;;;4.73;;